Overview Statistics Trail Chart Weather Telemetry Raw packets
 

This is the latest recevied weather packets stored in our database for station/object G4MHJ-1. If no packets are shown the sender has not sent any weather packets the latest 10 day(s).

<< 1 2 3 4 5 >>
Time Temp. Humidity Pressure Rain* Wind** Luminosity Snow
1788487110 20° C 84% 1011.8 hPa 0 mm - 0 W/m² -
1788483510 20° C 85% 1012.8 hPa 0 mm - 0 W/m² -
1788479909 20° C 85% 1013.8 hPa 0 mm - 0 W/m² -
1788476310 20.56° C 85% 1014.1 hPa 0 mm - 0 W/m² -
1788472709 21.11° C 83% 1014.6 hPa 0 mm - 0 W/m² -
1788469110 21.11° C 84% 1015.1 hPa 0 mm - 0 W/m² -
1788465510 21.67° C 81% 1015.1 hPa 0 mm - 0 W/m² -
1788461909 22.78° C 78% 1015.2 hPa 0 mm - 0 W/m² -
1788458308 23.89° C 74% 1015.1 hPa 0.25 mm - 21 W/m² -
1788454710 24.44° C 72% 1015 hPa 0 mm - 88 W/m² -
1788451110 25.56° C 69% 1015.4 hPa 0 mm - 111 W/m² -
1788447509 26.11° C 59% 1015.8 hPa 0 mm - 260 W/m² -
1788443909 26.11° C 58% 1016 hPa 0 mm - 538 W/m² -
1788440309 25.56° C 62% 1016.6 hPa 0 mm - 218 W/m² -
1788436708 23.89° C 68% 1016.7 hPa 0 mm - 262 W/m² -
1788433108 23.33° C 68% 1017.1 hPa 0 mm - 211 W/m² -
1788429507 22.22° C 73% 1017.3 hPa 0 mm - 279 W/m² -
1788425910 21.11° C 79% 1017.3 hPa 0 mm - 178 W/m² -
1788422298 20° C 84% 1016.3 hPa 0 mm - 90 W/m² -
1788418699 19.44° C 87% 1015.8 hPa 0 mm - 42 W/m² -
1788415099 18.89° C 88% 1015.9 hPa 0 mm - 19 W/m² -
1788411498 18.89° C 89% 1015.6 hPa 0 mm - 0 W/m² -
1788407897 18.89° C 90% 1015.8 hPa 0 mm - 0 W/m² -
1788404296 18.89° C 89% 1015.5 hPa 0 mm - 0 W/m² -
1788400699 18.89° C 89% 1015.6 hPa 0 mm - 0 W/m² -

* Rain latest hour (hover to see other rain measurements)
** Current wind speed in m/s (hover to see current wind gust speed)